createdAt,value
2023-05-02T00:00:56.386Z,55.18
2023-05-02T00:03:23.617Z,55.08
2023-05-02T00:05:50.520Z,55.21
2023-05-02T00:08:17.259Z,55.26
2023-05-02T00:10:43.984Z,55.22
2023-05-02T00:13:11.081Z,55.23
2023-05-02T00:15:37.868Z,55.24
2023-05-02T00:18:04.644Z,55.27
2023-05-02T00:20:31.569Z,55.27
2023-05-02T00:22:58.303Z,55.36
2023-05-02T00:25:25.149Z,55.34
2023-05-02T00:27:52.953Z,55.47
2023-05-02T00:30:21.162Z,55.35
2023-05-02T00:32:48.141Z,55.37
2023-05-02T00:35:14.961Z,55.56
2023-05-02T00:37:41.815Z,55.49
2023-05-02T00:40:09.028Z,55.54
2023-05-02T00:42:36.563Z,55.63
2023-05-02T00:45:06.653Z,55.58
2023-05-02T00:47:33.982Z,55.70
2023-05-02T00:50:01.722Z,55.77
2023-05-02T00:52:29.103Z,55.81
2023-05-02T00:54:56.187Z,55.78
2023-05-02T00:57:23.189Z,55.89
2023-05-02T00:59:51.135Z,55.85
2023-05-02T01:02:33.033Z,55.93
2023-05-02T01:05:17.813Z,55.97
2023-05-02T01:07:53.503Z,55.96
2023-05-02T01:10:20.197Z,55.94
2023-05-02T01:13:29.340Z,55.96
2023-05-02T01:15:59.615Z,56.04
2023-05-02T01:18:32.528Z,56.20
2023-05-02T01:21:03.184Z,55.98
2023-05-02T01:23:43.262Z,56.04
2023-05-02T01:26:35.039Z,56.11
2023-05-02T01:29:04.024Z,56.12
2023-05-02T01:31:39.882Z,56.14
2023-05-02T01:34:10.397Z,56.15
2023-05-02T01:36:43.045Z,56.15
2023-05-02T01:39:13.456Z,56.12
2023-05-02T01:41:41.867Z,56.22
2023-05-02T01:44:10.440Z,56.21
2023-05-02T01:46:42.182Z,56.21
2023-05-02T01:49:09.390Z,56.21
2023-05-02T01:51:40.825Z,56.22
2023-05-02T01:54:09.061Z,56.34
2023-05-02T01:56:38.490Z,56.33
2023-05-02T01:59:10.641Z,56.37
2023-05-02T02:01:39.692Z,56.45
2023-05-02T02:04:09.188Z,56.36
2023-05-02T02:06:36.371Z,56.39
2023-05-02T02:09:03.970Z,56.34
2023-05-02T02:11:53.592Z,56.39
2023-05-02T02:14:25.417Z,56.46
2023-05-02T02:16:56.259Z,56.44
2023-05-02T02:19:24.717Z,56.52
2023-05-02T02:21:53.694Z,56.64
2023-05-02T02:24:22.994Z,56.56
2023-05-02T02:26:50.905Z,56.69
2023-05-02T02:29:17.662Z,56.75
2023-05-02T02:31:44.410Z,56.71
2023-05-02T02:34:11.315Z,56.65
2023-05-02T02:37:13.807Z,56.67
2023-05-02T02:39:53.374Z,56.80
2023-05-02T02:42:31.854Z,56.70
2023-05-02T02:45:31.307Z,56.66
2023-05-02T02:48:28.036Z,56.74
2023-05-02T02:51:12.844Z,56.75
2023-05-02T02:54:25.956Z,56.82
2023-05-02T02:57:15.526Z,56.78
2023-05-02T02:59:59.726Z,56.83
2023-05-02T03:02:31.008Z,56.79
2023-05-02T03:04:58.645Z,56.80
2023-05-02T03:07:28.521Z,56.80
2023-05-02T03:09:55.560Z,56.80
2023-05-02T03:12:22.467Z,56.86
2023-05-02T03:14:49.595Z,56.87
2023-05-02T03:17:16.384Z,56.74
2023-05-02T03:19:43.107Z,56.84
2023-05-02T03:22:10.122Z,56.92
2023-05-02T03:24:37.264Z,56.84
2023-05-02T03:27:04.670Z,56.86
2023-05-02T03:29:31.532Z,56.92
2023-05-02T03:31:58.424Z,56.95
2023-05-02T03:34:25.733Z,56.96
2023-05-02T03:36:52.484Z,56.93
2023-05-02T03:39:19.253Z,56.95
2023-05-02T03:41:46.539Z,56.85
2023-05-02T03:44:13.743Z,56.87
2023-05-02T03:46:40.526Z,56.88
2023-05-02T03:49:07.351Z,56.82
2023-05-02T03:51:34.408Z,56.96
2023-05-02T03:54:02.808Z,56.92
2023-05-02T03:56:29.664Z,56.91
2023-05-02T03:58:56.470Z,56.91
2023-05-02T04:01:23.742Z,56.92
2023-05-02T04:03:52.345Z,56.95
2023-05-02T04:06:19.188Z,56.90
2023-05-02T04:08:45.996Z,56.87
2023-05-02T04:11:12.755Z,56.88
2023-05-02T04:13:39.588Z,56.92
2023-05-02T04:16:06.600Z,56.96
2023-05-02T04:18:33.376Z,57.00
2023-05-02T04:21:00.362Z,57.08
2023-05-02T04:23:27.126Z,57.05
2023-05-02T04:25:56.947Z,57.04
2023-05-02T04:28:24.146Z,56.95
2023-05-02T04:30:51.603Z,56.96
2023-05-02T04:33:18.686Z,56.92
2023-05-02T04:35:46.154Z,56.91
2023-05-02T04:38:12.988Z,56.80
2023-05-02T04:40:40.205Z,56.90
2023-05-02T04:43:07.633Z,56.91
2023-05-02T04:45:37.470Z,56.90
2023-05-02T04:48:04.902Z,56.87
2023-05-02T04:50:32.490Z,56.95
2023-05-02T04:52:59.588Z,57.03
2023-05-02T04:55:26.486Z,56.95
2023-05-02T04:57:53.276Z,57.02
2023-05-02T05:00:20.285Z,57.01
2023-05-02T05:02:47.124Z,57.04
2023-05-02T05:05:14.113Z,57.05
2023-05-02T05:07:41.071Z,56.93
2023-05-02T05:10:08.695Z,56.93
2023-05-02T05:12:35.472Z,56.93
2023-05-02T05:15:02.284Z,56.84
2023-05-02T05:17:29.078Z,56.61
2023-05-02T05:19:55.932Z,56.51
2023-05-02T05:22:22.908Z,56.51
2023-05-02T05:24:56.217Z,56.54
2023-05-02T05:27:23.038Z,56.62
2023-05-02T05:29:50.182Z,56.67
2023-05-02T05:32:17.005Z,56.66
2023-05-02T05:34:43.790Z,56.62
2023-05-02T05:37:10.807Z,56.60
2023-05-02T05:39:38.010Z,56.57
2023-05-02T05:42:06.052Z,56.45
2023-05-02T05:44:32.815Z,56.38
2023-05-02T05:46:59.635Z,56.38
2023-05-02T05:49:26.404Z,56.39
2023-05-02T05:51:53.178Z,56.42
2023-05-02T05:54:19.920Z,56.46
2023-05-02T05:56:47.036Z,56.40
2023-05-02T05:59:14.170Z,56.34
2023-05-02T06:01:41.704Z,56.35
2023-05-02T06:04:08.678Z,56.31
2023-05-02T06:06:35.689Z,56.25
2023-05-02T06:09:02.640Z,56.19
2023-05-02T06:11:29.502Z,56.08
2023-05-02T06:13:56.358Z,55.97
2023-05-02T06:16:23.347Z,55.91
2023-05-02T06:18:54.126Z,55.79
2023-05-02T06:21:20.998Z,55.67
2023-05-02T06:26:32.642Z,55.48
2023-05-02T06:28:59.385Z,55.38
2023-05-02T06:31:26.151Z,55.35
2023-05-02T06:33:52.955Z,55.34
2023-05-02T06:36:19.708Z,55.30
2023-05-02T06:38:46.556Z,55.26
2023-05-02T06:41:17.304Z,55.27
2023-05-02T06:43:44.891Z,55.24
2023-05-02T06:46:11.656Z,55.31
2023-05-02T06:48:38.681Z,55.30
2023-05-02T06:51:05.470Z,55.27
2023-05-02T06:53:33.272Z,55.21
2023-05-02T06:56:00.376Z,55.20
2023-05-02T06:58:27.202Z,55.16
2023-05-02T07:00:54.070Z,55.22
2023-05-02T07:03:20.906Z,55.36
2023-05-02T07:05:47.723Z,55.39
2023-05-02T07:08:14.467Z,55.41
2023-05-02T07:10:41.347Z,55.42
2023-05-02T07:13:08.034Z,55.47
2023-05-02T07:15:34.963Z,55.40
2023-05-02T07:18:02.211Z,55.35
2023-05-02T07:20:29.054Z,55.26
2023-05-02T07:22:56.234Z,55.41
2023-05-02T07:25:23.048Z,55.40
2023-05-02T07:27:49.832Z,55.51
2023-05-02T07:30:16.689Z,55.40
2023-05-02T07:32:43.472Z,55.46
2023-05-02T07:35:10.250Z,55.52
2023-05-02T07:37:37.130Z,55.55
2023-05-02T07:40:04.719Z,55.48
2023-05-02T07:42:31.845Z,55.46
2023-05-02T07:44:59.997Z,55.59
2023-05-02T07:47:27.218Z,55.66
2023-05-02T07:49:55.193Z,55.63
2023-05-02T07:52:22.446Z,55.70
2023-05-02T07:54:50.108Z,55.87
2023-05-02T07:57:17.526Z,55.90
2023-05-02T07:59:44.374Z,55.91
2023-05-02T08:02:13.759Z,55.91
2023-05-02T08:04:41.236Z,55.97
2023-05-02T08:07:08.185Z,55.95
2023-05-02T08:09:35.120Z,56.11
2023-05-02T08:12:03.462Z,56.14
2023-05-02T08:14:33.680Z,56.08
2023-05-02T08:17:01.067Z,56.10
2023-05-02T08:19:28.047Z,56.13
2023-05-02T08:21:55.163Z,56.14
2023-05-02T08:24:22.586Z,56.12
2023-05-02T08:26:49.369Z,56.17
2023-05-02T08:29:16.272Z,56.24
2023-05-02T08:31:43.321Z,56.33
2023-05-02T08:34:10.139Z,56.36
2023-05-02T08:36:37.421Z,56.33
2023-05-02T08:39:04.358Z,56.32
2023-05-02T08:41:31.482Z,56.40
2023-05-02T08:44:00.028Z,56.33
2023-05-02T08:46:27.337Z,56.35
2023-05-02T08:48:58.911Z,56.29
2023-05-02T08:51:29.018Z,56.38
2023-05-02T08:53:57.720Z,56.27
2023-05-02T08:56:25.379Z,56.13
2023-05-02T08:58:52.350Z,56.21
2023-05-02T09:01:23.059Z,56.13
2023-05-02T09:03:50.572Z,56.07
2023-05-02T09:06:19.260Z,56.01
2023-05-02T09:08:50.866Z,55.92
2023-05-02T09:11:18.285Z,55.97
2023-05-02T09:13:52.322Z,55.80
2023-05-02T09:16:25.485Z,55.69
2023-05-02T09:18:54.978Z,55.63
2023-05-02T09:21:42.121Z,55.54
2023-05-02T09:24:34.944Z,55.67
2023-05-02T09:27:04.298Z,55.57
2023-05-02T09:29:37.835Z,55.55
2023-05-02T09:32:05.650Z,55.46
2023-05-02T09:34:32.887Z,55.42
2023-05-02T09:36:59.667Z,55.34
2023-05-02T09:39:30.955Z,55.54
2023-05-02T09:41:58.619Z,55.40
2023-05-02T09:44:27.801Z,55.29
2023-05-02T09:46:57.406Z,55.39
2023-05-02T09:49:46.808Z,55.46
2023-05-02T09:52:15.966Z,55.31
2023-05-02T09:54:43.517Z,55.35
2023-05-02T09:57:11.355Z,55.33
2023-05-02T09:59:39.958Z,55.38
2023-05-02T10:02:09.729Z,55.16
2023-05-02T10:04:37.509Z,55.10
2023-05-02T10:07:06.671Z,55.05
2023-05-02T10:09:36.326Z,55.07
2023-05-02T10:12:05.287Z,54.95
2023-05-02T10:14:35.975Z,55.09
2023-05-02T10:17:12.744Z,55.01
2023-05-02T10:19:52.967Z,54.88
2023-05-02T10:22:20.046Z,54.64
2023-05-02T10:24:49.384Z,54.64
2023-05-02T10:27:16.833Z,54.64
2023-05-02T10:29:44.861Z,54.62
2023-05-02T10:32:12.815Z,54.52
2023-05-02T10:34:41.824Z,54.40
2023-05-02T10:37:08.640Z,54.27
2023-05-02T10:39:35.683Z,54.18
2023-05-02T10:42:04.164Z,54.06
2023-05-02T10:44:38.991Z,54.16
2023-05-02T10:47:25.288Z,53.94
2023-05-02T10:49:57.379Z,53.84
2023-05-02T10:52:35.256Z,53.76
2023-05-02T10:55:25.020Z,53.65
2023-05-02T10:57:57.654Z,53.61
2023-05-02T11:00:34.803Z,53.66
2023-05-02T11:03:02.499Z,53.63
2023-05-02T11:05:29.704Z,53.58
2023-05-02T11:08:15.182Z,53.63
2023-05-02T11:10:42.216Z,53.67
2023-05-02T11:13:09.505Z,53.61
2023-05-02T11:15:42.123Z,53.61
2023-05-02T11:18:13.221Z,53.54
2023-05-02T11:20:44.844Z,53.49
2023-05-02T11:23:15.412Z,53.37
2023-05-02T11:25:48.277Z,53.32
2023-05-02T11:28:36.849Z,53.27
2023-05-02T11:31:07.520Z,53.15
2023-05-02T11:33:34.567Z,53.04
2023-05-02T11:36:01.736Z,52.97
2023-05-02T11:38:39.316Z,53.01
2023-05-02T11:41:06.551Z,52.98
2023-05-02T11:43:33.366Z,52.94
2023-05-02T11:46:01.908Z,52.95
2023-05-02T11:48:30.686Z,52.90
2023-05-02T11:51:05.774Z,52.91
2023-05-02T11:53:33.331Z,52.80
2023-05-02T11:56:04.678Z,52.73
2023-05-02T11:58:33.747Z,52.77
2023-05-02T12:01:14.388Z,52.69
2023-05-02T12:03:41.878Z,52.68
2023-05-02T12:06:19.004Z,52.67
2023-05-02T12:08:46.703Z,52.70
2023-05-02T12:11:18.300Z,52.69
2023-05-02T12:13:47.462Z,52.61
2023-05-02T12:16:14.732Z,52.67
2023-05-02T12:18:41.941Z,52.72
2023-05-02T12:21:09.034Z,52.94
2023-05-02T12:23:37.424Z,53.00
2023-05-02T12:26:31.900Z,53.06
2023-05-02T12:28:59.129Z,53.22
2023-05-02T12:31:28.203Z,53.38
2023-05-02T12:33:57.680Z,53.50
2023-05-02T12:36:25.081Z,53.56
2023-05-02T12:38:55.030Z,53.58
2023-05-02T12:41:51.614Z,53.58
2023-05-02T12:44:36.458Z,53.65
2023-05-02T12:47:03.269Z,53.70
2023-05-02T12:49:30.489Z,53.72
2023-05-02T12:51:58.236Z,53.66
2023-05-02T12:54:26.703Z,53.54
2023-05-02T12:56:53.537Z,53.52
2023-05-02T12:59:28.458Z,53.51
2023-05-02T13:01:55.336Z,53.49
2023-05-02T13:04:22.267Z,53.46
2023-05-02T13:06:49.399Z,53.40
2023-05-02T13:09:17.007Z,53.30
2023-05-02T13:11:43.978Z,53.28
2023-05-02T13:14:11.621Z,53.25
2023-05-02T13:16:38.721Z,53.13
2023-05-02T13:19:05.796Z,53.13
2023-05-02T13:21:32.648Z,53.02
2023-05-02T13:23:59.473Z,53.01
2023-05-02T13:26:26.238Z,52.88
2023-05-02T13:28:53.153Z,52.83
2023-05-02T13:31:19.936Z,52.87
2023-05-02T13:33:46.748Z,52.89
2023-05-02T13:36:13.723Z,52.86
2023-05-02T13:38:40.668Z,52.86
2023-05-02T13:41:14.036Z,52.89
2023-05-02T13:43:40.874Z,52.93
2023-05-02T13:46:07.744Z,52.79
2023-05-02T13:48:34.837Z,52.84
2023-05-02T13:51:01.610Z,52.83
2023-05-02T13:53:28.383Z,52.75
2023-05-02T13:55:55.192Z,52.74
2023-05-02T13:58:22.075Z,52.78
2023-05-02T14:00:48.972Z,52.70
2023-05-02T14:03:17.986Z,52.60
2023-05-02T14:05:44.983Z,52.66
2023-05-02T14:08:12.138Z,52.73
2023-05-02T14:10:39.111Z,52.78
2023-05-02T14:13:05.898Z,52.77
2023-05-02T14:15:32.730Z,52.77
2023-05-02T14:17:59.507Z,52.61
2023-05-02T14:20:26.349Z,52.56
2023-05-02T14:22:53.135Z,52.56
2023-05-02T14:25:20.611Z,52.53
2023-05-02T14:27:47.481Z,52.42
2023-05-02T14:30:14.211Z,52.40
2023-05-02T14:32:41.184Z,52.56
2023-05-02T14:35:08.333Z,52.55
2023-05-02T14:37:35.129Z,52.48
2023-05-02T14:40:02.175Z,52.33
2023-05-02T14:42:29.212Z,52.34
2023-05-02T14:44:58.769Z,52.27
2023-05-02T14:47:33.882Z,52.36
2023-05-02T14:50:01.495Z,52.15
2023-05-02T14:52:28.394Z,52.05
2023-05-02T14:54:55.146Z,51.87
2023-05-02T14:57:22.117Z,51.76
2023-05-02T14:59:48.924Z,51.83
2023-05-02T15:02:15.811Z,51.89
2023-05-02T15:04:42.658Z,51.93
2023-05-02T15:07:09.855Z,51.96
2023-05-02T15:09:36.785Z,52.11
2023-05-02T15:12:03.683Z,52.12
2023-05-02T15:14:30.512Z,52.21
2023-05-02T15:16:57.779Z,52.34
2023-05-02T15:19:28.077Z,52.32
2023-05-02T15:21:57.456Z,52.41
2023-05-02T15:24:24.777Z,52.49
2023-05-02T15:26:52.063Z,52.58
2023-05-02T15:29:19.098Z,52.84
2023-05-02T15:31:45.917Z,53.12
2023-05-02T15:34:12.846Z,53.40
2023-05-02T15:36:40.715Z,53.61
2023-05-02T15:39:07.606Z,53.91
2023-05-02T15:41:34.473Z,54.18
2023-05-02T15:44:01.682Z,54.46
2023-05-02T15:46:28.592Z,54.68
2023-05-02T15:48:55.442Z,55.02
2023-05-02T15:51:22.204Z,55.23
2023-05-02T15:53:52.371Z,55.40
2023-05-02T15:56:21.513Z,55.65
2023-05-02T15:58:48.641Z,55.87
2023-05-02T16:01:15.694Z,56.03
2023-05-02T16:03:42.639Z,56.27
2023-05-02T16:06:10.023Z,56.42
2023-05-02T16:08:36.878Z,56.63
2023-05-02T16:11:03.698Z,56.76
2023-05-02T16:13:30.417Z,56.77
2023-05-02T16:15:57.181Z,56.92
2023-05-02T16:18:28.352Z,57.21
2023-05-02T16:20:57.108Z,57.17
2023-05-02T16:23:24.628Z,57.28
2023-05-02T16:26:00.822Z,57.61
2023-05-02T16:28:27.813Z,57.73
2023-05-02T16:30:55.034Z,57.78
2023-05-02T16:33:22.543Z,57.89
2023-05-02T16:35:49.318Z,57.93
2023-05-02T16:38:16.254Z,58.04
2023-05-02T16:40:43.028Z,58.15
2023-05-02T16:43:09.868Z,58.40
2023-05-02T16:45:36.625Z,58.41
2023-05-02T16:48:04.613Z,58.62
2023-05-02T16:50:31.847Z,58.56
2023-05-02T16:52:58.600Z,58.92
2023-05-02T16:55:25.337Z,58.98
2023-05-02T16:57:52.128Z,59.01
2023-05-02T17:00:19.174Z,59.11
2023-05-02T17:02:46.920Z,59.18
2023-05-02T17:05:13.861Z,59.46
2023-05-02T17:07:40.570Z,59.39
2023-05-02T17:10:08.257Z,59.52
2023-05-02T17:12:35.080Z,59.72
2023-05-02T17:15:03.610Z,59.74
2023-05-02T17:17:31.293Z,59.78
2023-05-02T17:19:58.467Z,59.91
2023-05-02T17:22:26.349Z,60.06
2023-05-02T17:24:54.873Z,60.24
2023-05-02T17:27:21.692Z,60.32
2023-05-02T17:29:48.442Z,60.48
2023-05-02T17:32:15.943Z,60.45
2023-05-02T17:34:45.615Z,60.48
2023-05-02T17:37:12.930Z,60.32
2023-05-02T17:39:39.882Z,60.42
2023-05-02T17:42:07.011Z,60.53
2023-05-02T17:44:36.683Z,60.62
2023-05-02T17:47:04.470Z,60.67
2023-05-02T17:49:31.152Z,60.74
2023-05-02T17:51:58.309Z,60.84
2023-05-02T17:54:25.518Z,60.86
2023-05-02T17:56:52.903Z,60.94
2023-05-02T17:59:20.671Z,61.09
2023-05-02T18:01:47.982Z,61.00
2023-05-02T18:04:19.066Z,61.21
2023-05-02T18:06:46.534Z,61.35
2023-05-02T18:09:13.899Z,61.28
2023-05-02T18:11:41.315Z,61.36
2023-05-02T18:14:08.202Z,61.34
2023-05-02T18:16:36.338Z,61.45
2023-05-02T18:19:03.692Z,61.56
2023-05-02T18:21:34.586Z,61.54
2023-05-02T18:24:02.194Z,61.79
2023-05-02T18:26:29.608Z,61.73
2023-05-02T18:28:57.795Z,61.70
2023-05-02T18:31:24.740Z,61.74
2023-05-02T18:33:54.069Z,61.86
2023-05-02T18:36:26.427Z,61.77
2023-05-02T18:38:53.865Z,61.90
2023-05-02T18:41:21.724Z,61.93
2023-05-02T18:43:50.544Z,62.05
2023-05-02T18:46:17.950Z,62.13
2023-05-02T18:48:45.033Z,62.12
2023-05-02T18:51:12.489Z,62.18
2023-05-02T18:53:39.376Z,62.12
2023-05-02T18:56:13.661Z,62.26
2023-05-02T18:58:42.112Z,62.17
2023-05-02T19:01:16.111Z,62.24
2023-05-02T19:03:44.301Z,62.30
2023-05-02T19:06:12.302Z,62.46
2023-05-02T19:08:41.440Z,62.54
2023-05-02T19:11:09.432Z,62.57
2023-05-02T19:13:36.790Z,62.53
2023-05-02T19:16:05.047Z,62.68
2023-05-02T19:18:32.352Z,62.83
2023-05-02T19:21:00.009Z,62.87
2023-05-02T19:23:27.459Z,62.85
2023-05-02T19:25:55.572Z,63.06
2023-05-02T19:28:23.226Z,63.22
2023-05-02T19:30:51.865Z,63.39
2023-05-02T19:33:19.140Z,63.45
2023-05-02T19:35:46.383Z,63.53
2023-05-02T19:38:13.557Z,63.62
2023-05-02T19:40:40.954Z,63.79
2023-05-02T19:43:08.357Z,63.71
2023-05-02T19:45:35.932Z,63.79
2023-05-02T19:48:03.168Z,63.83
2023-05-02T19:50:30.251Z,63.98
2023-05-02T19:52:58.030Z,63.91
2023-05-02T19:55:24.912Z,64.02
2023-05-02T19:57:51.891Z,63.95
2023-05-02T20:00:19.369Z,64.01
2023-05-02T20:02:49.248Z,64.03
2023-05-02T20:05:18.545Z,64.13
2023-05-02T20:07:47.015Z,64.10
2023-05-02T20:10:15.504Z,64.12
2023-05-02T20:12:46.903Z,63.95
2023-05-02T20:15:16.962Z,64.04
2023-05-02T20:17:44.441Z,64.08
2023-05-02T20:20:12.269Z,64.25
2023-05-02T20:22:41.935Z,64.14
2023-05-02T20:25:11.956Z,64.17
2023-05-02T20:27:39.377Z,64.14
2023-05-02T20:30:11.202Z,64.26
2023-05-02T20:32:38.474Z,64.28
2023-05-02T20:35:05.968Z,64.16
2023-05-02T20:37:32.952Z,64.30
2023-05-02T20:40:00.273Z,64.24
2023-05-02T20:42:27.278Z,64.05
2023-05-02T20:45:01.829Z,64.12
2023-05-02T20:47:30.325Z,64.22
2023-05-02T20:49:57.366Z,64.24
2023-05-02T20:52:24.176Z,64.28
2023-05-02T20:54:54.997Z,64.27
2023-05-02T20:57:22.388Z,64.32
2023-05-02T20:59:49.118Z,64.34
2023-05-02T21:02:16.377Z,64.43
2023-05-02T21:04:43.130Z,64.45
2023-05-02T21:07:09.868Z,64.52
2023-05-02T21:09:36.579Z,64.52
2023-05-02T21:12:03.493Z,64.59
2023-05-02T21:14:30.500Z,64.71
2023-05-02T21:16:57.272Z,64.73
2023-05-02T21:19:24.218Z,64.75
2023-05-02T21:21:51.217Z,64.81
2023-05-02T21:24:18.013Z,64.88
2023-05-02T21:26:45.226Z,64.90
2023-05-02T21:29:13.784Z,64.95
2023-05-02T21:31:40.680Z,65.05
2023-05-02T21:34:07.539Z,64.97
2023-05-02T21:36:34.312Z,65.05
2023-05-02T21:39:01.105Z,65.00
2023-05-02T21:41:27.900Z,65.04
2023-05-02T21:43:54.792Z,65.03
2023-05-02T21:46:21.676Z,65.05
2023-05-02T21:48:49.275Z,65.02
2023-05-02T21:51:16.261Z,65.05
2023-05-02T21:53:43.126Z,65.13
2023-05-02T21:56:10.677Z,64.95
2023-05-02T21:58:37.435Z,65.01
2023-05-02T22:01:04.573Z,65.00
2023-05-02T22:03:33.877Z,65.03
2023-05-02T22:06:06.011Z,65.13
2023-05-02T22:08:33.836Z,65.03
2023-05-02T22:11:00.644Z,65.03
2023-05-02T22:13:27.461Z,65.08
2023-05-02T22:15:54.209Z,65.09
2023-05-02T22:18:21.166Z,65.21
2023-05-02T22:20:48.275Z,65.07
2023-05-02T22:23:15.316Z,65.14
2023-05-02T22:25:44.686Z,65.18
2023-05-02T22:28:12.258Z,65.21
2023-05-02T22:30:40.461Z,65.19
2023-05-02T22:33:07.758Z,65.28
2023-05-02T22:35:34.711Z,65.30
2023-05-02T22:38:05.048Z,65.20
2023-05-02T22:40:32.191Z,65.37
2023-05-02T22:42:59.258Z,65.37
2023-05-02T22:45:27.142Z,65.39
2023-05-02T22:47:53.931Z,65.33
2023-05-02T22:50:21.596Z,65.45
2023-05-02T22:52:49.301Z,65.47
2023-05-02T22:55:16.270Z,65.55
2023-05-02T22:57:43.028Z,65.55
2023-05-02T23:00:10.905Z,65.61
2023-05-02T23:02:38.070Z,65.65
2023-05-02T23:05:06.538Z,65.64
2023-05-02T23:07:33.370Z,65.70
2023-05-02T23:10:00.313Z,65.75
2023-05-02T23:12:28.513Z,65.58
2023-05-02T23:14:55.568Z,65.71
2023-05-02T23:17:23.205Z,65.77
2023-05-02T23:19:50.560Z,65.64
2023-05-02T23:22:17.550Z,65.68
2023-05-02T23:24:47.403Z,65.80
2023-05-02T23:27:14.290Z,65.80
2023-05-02T23:29:41.069Z,65.71
2023-05-02T23:32:08.350Z,65.82
2023-05-02T23:34:38.261Z,65.73
2023-05-02T23:37:06.831Z,65.61
2023-05-02T23:39:33.896Z,65.69
2023-05-02T23:42:03.811Z,65.68
2023-05-02T23:44:31.359Z,65.66
2023-05-02T23:46:59.446Z,65.72
2023-05-02T23:49:26.823Z,65.69
2023-05-02T23:51:53.606Z,65.66
2023-05-02T23:54:20.466Z,65.70
2023-05-02T23:56:47.303Z,65.67
2023-05-02T23:59:14.068Z,65.81
